JBU6195 KBOS-KDCA
Flight info
| Callsign | JBU6195 |
|---|---|
| Flight time | N/A |
| Altitude | 34000 |
| Route | SSOXS7 SSOXS Q167 ZIZZI KNUKK ATR LAFLN DEALE3 |
| Aircraft | A320/M-SDE3FGHIRWY/LB1 |
Departure
| Time | 2026-05-05 00:26 |
|---|---|
| Airport | Boston Logan International Airport (KBOS) |
Arrival
| Time | N/A |
|---|---|
| Airport | Ronald Reagan Washington National Airport (KDCA) |
| Time | Latitude | Longitude | Altitude | Speed | Heading |
|---|---|---|---|---|---|
| 2026-05-05 00:00 | 42.36472 | -71.01468 | 26 ft | 0 kts | 336° |
| 2026-05-05 00:12 | 42.36458 | -71.01460 | 30 ft | 4 kts | 338° |
| 2026-05-05 00:12 | 42.36433 | -71.01447 | 30 ft | 4 kts | 342° |
| 2026-05-05 00:13 | 42.36407 | -71.01437 | 29 ft | 4 kts | 352° |
| 2026-05-05 00:13 | 42.36381 | -71.01437 | 26 ft | 4 kts | 24° |
| 2026-05-05 00:13 | 42.36368 | -71.01451 | 31 ft | 1 kts | 72° |
| 2026-05-05 00:13 | 42.36367 | -71.01455 | 31 ft | 0 kts | 72° |
| 2026-05-05 00:19 | 42.36368 | -71.01453 | 31 ft | 1 kts | 72° |
| 2026-05-05 00:19 | 42.36371 | -71.01421 | 30 ft | 5 kts | 91° |
| 2026-05-05 00:19 | 42.36362 | -71.01354 | 28 ft | 9 kts | 90° |
| 2026-05-05 00:19 | 42.36412 | -71.01297 | 27 ft | 12 kts | 20° |
| 2026-05-05 00:20 | 42.36504 | -71.01253 | 26 ft | 16 kts | 20° |
| 2026-05-05 00:20 | 42.36617 | -71.01198 | 26 ft | 18 kts | 20° |
| 2026-05-05 00:20 | 42.36743 | -71.01142 | 26 ft | 20 kts | 7° |
| 2026-05-05 00:20 | 42.36843 | -71.01215 | 26 ft | 15 kts | 322° |
| 2026-05-05 00:21 | 42.36933 | -71.01168 | 26 ft | 16 kts | 41° |
| 2026-05-05 00:21 | 42.37032 | -71.01082 | 25 ft | 18 kts | 25° |
| 2026-05-05 00:21 | 42.37152 | -71.01003 | 30 ft | 20 kts | 26° |
| 2026-05-05 00:21 | 42.37280 | -71.00920 | 25 ft | 21 kts | 24° |
| 2026-05-05 00:22 | 42.37409 | -71.00856 | 27 ft | 15 kts | 20° |
| 2026-05-05 00:22 | 42.37515 | -71.00804 | 27 ft | 17 kts | 20° |
| 2026-05-05 00:22 | 42.37632 | -71.00746 | 27 ft | 19 kts | 20° |
| 2026-05-05 00:22 | 42.37733 | -71.00698 | 28 ft | 9 kts | 19° |
| 2026-05-05 00:23 | 42.37796 | -71.00668 | 25 ft | 10 kts | 19° |
| 2026-05-05 00:23 | 42.37838 | -71.00598 | 27 ft | 11 kts | 88° |
| 2026-05-05 00:23 | 42.37830 | -71.00563 | 28 ft | 1 kts | 111° |
| 2026-05-05 00:23 | 42.37822 | -71.00537 | 29 ft | 6 kts | 111° |
| 2026-05-05 00:24 | 42.37786 | -71.00488 | 27 ft | 9 kts | 166° |
| 2026-05-05 00:24 | 42.37746 | -71.00495 | 25 ft | 0 kts | 199° |
| 2026-05-05 00:25 | 42.37733 | -71.00501 | 29 ft | 13 kts | 198° |
| 2026-05-05 00:25 | 42.37406 | -71.00659 | 28 ft | 83 kts | 200° |
| 2026-05-05 00:25 | 42.36680 | -71.01011 | 28 ft | 136 kts | 199° |
| 2026-05-05 00:26 | 42.35733 | -71.01461 | 415 ft | 150 kts | 200° |
| 2026-05-05 00:26 | 42.34696 | -71.01733 | 948 ft | 163 kts | 178° |
| 2026-05-05 00:26 | 42.33590 | -71.01069 | 1437 ft | 197 kts | 145° |
| 2026-05-05 00:26 | 42.32643 | -70.99564 | 2007 ft | 217 kts | 136° |
| 2026-05-05 00:27 | 42.31757 | -70.97988 | 2779 ft | 225 kts | 130° |
| 2026-05-05 00:27 | 42.31216 | -70.95930 | 3523 ft | 245 kts | 99° |
| 2026-05-05 00:27 | 42.31403 | -70.93510 | 3961 ft | 273 kts | 78° |
| 2026-05-05 00:27 | 42.31806 | -70.90934 | 4582 ft | 291 kts | 78° |
| 2026-05-05 00:28 | 42.32210 | -70.88233 | 5486 ft | 296 kts | 78° |
| 2026-05-05 00:28 | 42.32609 | -70.85485 | 6437 ft | 300 kts | 78° |
| 2026-05-05 00:28 | 42.32963 | -70.82690 | 7359 ft | 304 kts | 84° |
| 2026-05-05 00:28 | 42.32897 | -70.79837 | 8297 ft | 306 kts | 99° |
| 2026-05-05 00:29 | 42.32319 | -70.77059 | 9220 ft | 309 kts | 114° |
| 2026-05-05 00:29 | 42.31416 | -70.74413 | 10107 ft | 311 kts | 116° |
| 2026-05-05 00:29 | 42.30351 | -70.71762 | 10484 ft | 333 kts | 127° |
| 2026-05-05 00:29 | 42.28786 | -70.69349 | 10791 ft | 350 kts | 141° |
| 2026-05-05 00:30 | 42.26819 | -70.67469 | 11434 ft | 352 kts | 155° |
| 2026-05-05 00:30 | 42.24586 | -70.66190 | 12232 ft | 351 kts | 165° |
| 2026-05-05 00:30 | 42.22261 | -70.65122 | 13054 ft | 354 kts | 165° |
| 2026-05-05 00:30 | 42.19925 | -70.64053 | 13869 ft | 356 kts | 166° |
| 2026-05-05 00:31 | 42.17564 | -70.62986 | 14598 ft | 359 kts | 168° |
| 2026-05-05 00:31 | 42.15157 | -70.62330 | 15219 ft | 359 kts | 179° |
| 2026-05-05 00:31 | 42.12633 | -70.62325 | 15887 ft | 358 kts | 190° |
| 2026-05-05 00:31 | 42.10195 | -70.62967 | 16521 ft | 357 kts | 201° |
| 2026-05-05 00:32 | 42.07829 | -70.64017 | 17174 ft | 360 kts | 203° |
| 2026-05-05 00:32 | 42.05435 | -70.65081 | 17829 ft | 364 kts | 203° |
| 2026-05-05 00:32 | 42.03044 | -70.66138 | 18437 ft | 369 kts | 203° |
| 2026-05-05 00:32 | 42.00585 | -70.67223 | 19026 ft | 374 kts | 203° |
| 2026-05-05 00:33 | 41.98103 | -70.68311 | 19646 ft | 378 kts | 203° |
| 2026-05-05 00:33 | 41.95584 | -70.69415 | 20248 ft | 383 kts | 203° |
| 2026-05-05 00:33 | 41.93034 | -70.70534 | 20869 ft | 388 kts | 203° |
| 2026-05-05 00:33 | 41.90453 | -70.71665 | 21473 ft | 392 kts | 203° |
| 2026-05-05 00:34 | 41.87844 | -70.72804 | 22069 ft | 397 kts | 203° |
| 2026-05-05 00:34 | 41.85206 | -70.73957 | 22661 ft | 401 kts | 203° |
| 2026-05-05 00:34 | 41.82638 | -70.75402 | 23245 ft | 400 kts | 212° |
| 2026-05-05 00:34 | 41.80206 | -70.77227 | 23769 ft | 403 kts | 214° |
| 2026-05-05 00:35 | 41.77788 | -70.79057 | 24224 ft | 407 kts | 214° |
| 2026-05-05 00:35 | 41.75309 | -70.80930 | 24721 ft | 411 kts | 214° |
| 2026-05-05 00:35 | 41.72806 | -70.82816 | 25207 ft | 415 kts | 214° |
| 2026-05-05 00:35 | 41.70279 | -70.84713 | 25687 ft | 418 kts | 214° |
| 2026-05-05 00:36 | 41.67726 | -70.86621 | 26161 ft | 422 kts | 214° |
| 2026-05-05 00:36 | 41.65152 | -70.88544 | 26631 ft | 426 kts | 214° |
| 2026-05-05 00:36 | 41.63439 | -70.89822 | 26951 ft | 428 kts | 214° |
| 2026-05-05 00:37 | 41.56974 | -70.94821 | 28070 ft | 432 kts | 221° |
| 2026-05-05 00:37 | 41.54670 | -70.97368 | 28501 ft | 429 kts | 230° |
| 2026-05-05 00:37 | 41.52684 | -71.00328 | 28928 ft | 427 kts | 238° |
| 2026-05-05 00:37 | 41.51010 | -71.03580 | 29343 ft | 427 kts | 242° |
| 2026-05-05 00:38 | 41.49367 | -71.06894 | 29754 ft | 430 kts | 242° |
| 2026-05-05 00:38 | 41.47711 | -71.10221 | 30132 ft | 433 kts | 242° |
| 2026-05-05 00:38 | 41.46053 | -71.13533 | 30455 ft | 436 kts | 242° |
| 2026-05-05 00:38 | 41.44361 | -71.16901 | 30741 ft | 439 kts | 242° |
| 2026-05-05 00:39 | 41.42660 | -71.20284 | 31098 ft | 441 kts | 242° |
| 2026-05-05 00:39 | 41.40951 | -71.23676 | 31552 ft | 440 kts | 242° |
| 2026-05-05 00:39 | 41.39239 | -71.27066 | 32005 ft | 440 kts | 242° |
| 2026-05-05 00:39 | 41.37529 | -71.30440 | 32449 ft | 440 kts | 242° |
| 2026-05-05 00:40 | 41.35815 | -71.33820 | 32898 ft | 441 kts | 242° |
| 2026-05-05 00:40 | 41.34102 | -71.37201 | 33348 ft | 441 kts | 242° |
| 2026-05-05 00:40 | 41.32391 | -71.40585 | 33797 ft | 441 kts | 242° |
| 2026-05-05 00:40 | 41.30679 | -71.43974 | 33937 ft | 441 kts | 242° |
| 2026-05-05 00:41 | 41.28973 | -71.47344 | 33963 ft | 438 kts | 242° |
| 2026-05-05 00:41 | 41.25609 | -71.53991 | 33965 ft | 436 kts | 242° |
| 2026-05-05 00:42 | 41.22226 | -71.60663 | 33965 ft | 435 kts | 242° |
| 2026-05-05 00:42 | 41.19322 | -71.66366 | 33964 ft | 435 kts | 242° |
| 2026-05-05 00:43 | 41.15925 | -71.73010 | 33961 ft | 435 kts | 242° |
| 2026-05-05 00:43 | 41.12530 | -71.79652 | 33951 ft | 435 kts | 242° |
| 2026-05-05 00:44 | 41.09177 | -71.86258 | 33954 ft | 435 kts | 242° |
| 2026-05-05 00:44 | 41.05794 | -71.92910 | 33944 ft | 435 kts | 242° |
| 2026-05-05 00:45 | 41.02660 | -71.99713 | 33955 ft | 428 kts | 251° |
| 2026-05-05 00:45 | 41.00159 | -72.06859 | 33964 ft | 428 kts | 251° |
| 2026-05-05 00:46 | 40.97645 | -72.13998 | 33954 ft | 428 kts | 250° |
| 2026-05-05 00:46 | 40.95136 | -72.21077 | 33962 ft | 429 kts | 250° |
| 2026-05-05 00:47 | 40.92579 | -72.28197 | 33966 ft | 431 kts | 247° |
| 2026-05-05 00:47 | 40.88964 | -72.34612 | 33973 ft | 443 kts | 230° |
| 2026-05-05 00:48 | 40.84571 | -72.40326 | 33974 ft | 443 kts | 230° |
| 2026-05-05 00:48 | 40.80166 | -72.46034 | 33962 ft | 445 kts | 227° |
| 2026-05-05 00:49 | 40.75424 | -72.51241 | 33983 ft | 447 kts | 224° |
| 2026-05-05 00:49 | 40.70613 | -72.56444 | 33982 ft | 447 kts | 224° |
| 2026-05-05 00:50 | 40.65840 | -72.61689 | 33969 ft | 446 kts | 226° |
| 2026-05-05 00:50 | 40.61187 | -72.67083 | 33990 ft | 445 kts | 226° |
| 2026-05-05 00:51 | 40.56593 | -72.72461 | 33993 ft | 445 kts | 226° |
| 2026-05-05 00:51 | 40.51942 | -72.77829 | 33997 ft | 446 kts | 226° |
| 2026-05-05 00:52 | 40.47257 | -72.83167 | 33982 ft | 446 kts | 225° |
| 2026-05-05 00:52 | 40.42567 | -72.88489 | 33993 ft | 445 kts | 225° |
| 2026-05-05 00:53 | 40.38679 | -72.92910 | 34004 ft | 445 kts | 225° |
| 2026-05-05 00:53 | 40.33255 | -72.99089 | 33995 ft | 444 kts | 226° |
| 2026-05-05 00:54 | 40.28582 | -73.04394 | 33980 ft | 444 kts | 225° |
| 2026-05-05 00:54 | 40.24704 | -73.08781 | 34005 ft | 443 kts | 225° |
| 2026-05-05 00:55 | 40.20046 | -73.14062 | 34010 ft | 443 kts | 225° |
| 2026-05-05 00:55 | 40.14635 | -73.20172 | 34004 ft | 442 kts | 225° |
| 2026-05-05 00:56 | 40.09976 | -73.25409 | 33996 ft | 442 kts | 225° |
| 2026-05-05 00:56 | 40.06107 | -73.29759 | 34001 ft | 441 kts | 225° |
| 2026-05-05 00:57 | 40.01858 | -73.35405 | 34016 ft | 433 kts | 238° |
| 2026-05-05 00:57 | 39.98340 | -73.41780 | 34011 ft | 433 kts | 238° |
| 2026-05-05 00:58 | 39.94859 | -73.48123 | 34014 ft | 433 kts | 238° |
| 2026-05-05 00:58 | 39.91350 | -73.54486 | 34000 ft | 432 kts | 238° |
| 2026-05-05 00:59 | 39.87835 | -73.60840 | 34012 ft | 432 kts | 238° |
| 2026-05-05 00:59 | 39.84317 | -73.67187 | 34003 ft | 432 kts | 237° |
| 2026-05-05 01:00 | 39.80220 | -73.74555 | 34010 ft | 432 kts | 237° |
| 2026-05-05 01:00 | 39.77291 | -73.79819 | 34009 ft | 432 kts | 237° |
| 2026-05-05 01:01 | 39.73762 | -73.86147 | 34007 ft | 432 kts | 237° |
| 2026-05-05 01:01 | 39.70233 | -73.92457 | 34015 ft | 432 kts | 237° |
| 2026-05-05 01:02 | 39.66704 | -73.98754 | 34006 ft | 431 kts | 237° |
| 2026-05-05 01:02 | 39.63195 | -74.05003 | 34002 ft | 431 kts | 237° |
| 2026-05-05 01:03 | 39.59658 | -74.11291 | 33993 ft | 431 kts | 237° |
| 2026-05-05 01:03 | 39.56122 | -74.17568 | 33993 ft | 431 kts | 237° |
| 2026-05-05 01:03 | 39.54348 | -74.20713 | 33325 ft | 434 kts | 237° |
| 2026-05-05 01:04 | 39.52564 | -74.23868 | 32589 ft | 434 kts | 236° |
| 2026-05-05 01:04 | 39.49019 | -74.30130 | 31440 ft | 428 kts | 236° |
| 2026-05-05 01:04 | 39.47292 | -74.33179 | 30910 ft | 424 kts | 236° |
| 2026-05-05 01:05 | 39.45555 | -74.36249 | 30380 ft | 421 kts | 236° |
| 2026-05-05 01:05 | 39.43830 | -74.39293 | 29815 ft | 418 kts | 236° |
| 2026-05-05 01:05 | 39.42120 | -74.42307 | 29238 ft | 414 kts | 236° |
| 2026-05-05 01:05 | 39.40420 | -74.45294 | 28667 ft | 410 kts | 236° |
| 2026-05-05 01:06 | 39.38738 | -74.48242 | 28128 ft | 406 kts | 236° |
| 2026-05-05 01:06 | 39.37068 | -74.51169 | 27597 ft | 402 kts | 236° |
| 2026-05-05 01:06 | 39.35424 | -74.54055 | 27079 ft | 399 kts | 236° |
| 2026-05-05 01:06 | 39.33784 | -74.56931 | 26582 ft | 395 kts | 236° |
| 2026-05-05 01:07 | 39.32185 | -74.59738 | 26110 ft | 392 kts | 236° |
| 2026-05-05 01:07 | 39.30572 | -74.62560 | 25655 ft | 389 kts | 236° |
| 2026-05-05 01:07 | 39.28969 | -74.65363 | 25205 ft | 386 kts | 236° |
| 2026-05-05 01:07 | 39.27380 | -74.68139 | 24793 ft | 384 kts | 236° |
| 2026-05-05 01:08 | 39.25796 | -74.70903 | 24367 ft | 381 kts | 236° |
| 2026-05-05 01:08 | 39.24227 | -74.73642 | 23973 ft | 379 kts | 236° |
| 2026-05-05 01:08 | 39.22666 | -74.76360 | 23583 ft | 376 kts | 236° |
| 2026-05-05 01:08 | 39.21134 | -74.79025 | 23127 ft | 373 kts | 236° |
| 2026-05-05 01:09 | 39.19595 | -74.81698 | 22677 ft | 370 kts | 236° |
| 2026-05-05 01:09 | 39.18065 | -74.84352 | 22216 ft | 367 kts | 236° |
| 2026-05-05 01:09 | 39.16550 | -74.86977 | 21759 ft | 364 kts | 236° |
| 2026-05-05 01:09 | 39.15044 | -74.89584 | 21304 ft | 361 kts | 236° |
| 2026-05-05 01:10 | 39.13548 | -74.92174 | 20842 ft | 358 kts | 236° |
| 2026-05-05 01:10 | 39.12067 | -74.94738 | 20367 ft | 355 kts | 236° |
| 2026-05-05 01:10 | 39.10595 | -74.97284 | 19912 ft | 352 kts | 236° |
| 2026-05-05 01:10 | 39.09138 | -74.99804 | 19452 ft | 350 kts | 236° |
| 2026-05-05 01:11 | 39.07713 | -75.02267 | 18990 ft | 347 kts | 236° |
| 2026-05-05 01:11 | 39.06278 | -75.04747 | 18543 ft | 344 kts | 236° |
| 2026-05-05 01:11 | 39.04855 | -75.07204 | 18041 ft | 342 kts | 236° |
| 2026-05-05 01:11 | 39.03438 | -75.09651 | 17546 ft | 339 kts | 236° |
| 2026-05-05 01:12 | 39.02035 | -75.12074 | 17058 ft | 336 kts | 236° |
| 2026-05-05 01:12 | 39.00642 | -75.14469 | 16575 ft | 334 kts | 235° |
| 2026-05-05 01:12 | 38.99256 | -75.16846 | 16103 ft | 331 kts | 235° |
| 2026-05-05 01:12 | 38.97879 | -75.19211 | 15652 ft | 329 kts | 235° |
| 2026-05-05 01:13 | 38.96518 | -75.21550 | 15179 ft | 326 kts | 235° |
| 2026-05-05 01:13 | 38.95184 | -75.23837 | 14733 ft | 324 kts | 235° |
| 2026-05-05 01:13 | 38.93838 | -75.26141 | 14298 ft | 321 kts | 235° |
| 2026-05-05 01:13 | 38.92498 | -75.28431 | 13885 ft | 319 kts | 235° |
| 2026-05-05 01:14 | 38.91169 | -75.30696 | 13425 ft | 317 kts | 235° |
| 2026-05-05 01:14 | 38.89846 | -75.32952 | 12947 ft | 315 kts | 236° |
| 2026-05-05 01:14 | 38.88537 | -75.35193 | 12469 ft | 313 kts | 236° |
| 2026-05-05 01:14 | 38.87239 | -75.37424 | 11973 ft | 311 kts | 236° |
| 2026-05-05 01:15 | 38.85959 | -75.39614 | 11516 ft | 310 kts | 236° |
| 2026-05-05 01:15 | 38.84666 | -75.41820 | 11075 ft | 309 kts | 236° |
| 2026-05-05 01:15 | 38.83379 | -75.44018 | 10630 ft | 307 kts | 236° |
| 2026-05-05 01:15 | 38.82097 | -75.46204 | 10224 ft | 305 kts | 236° |
| 2026-05-05 01:16 | 38.80841 | -75.48366 | 10039 ft | 299 kts | 239° |
| 2026-05-05 01:16 | 38.79847 | -75.50628 | 10052 ft | 293 kts | 249° |
| 2026-05-05 01:16 | 38.79155 | -75.53142 | 10047 ft | 303 kts | 258° |
| 2026-05-05 01:16 | 38.78805 | -75.55808 | 10043 ft | 304 kts | 266° |
| 2026-05-05 01:17 | 38.78639 | -75.58513 | 10046 ft | 305 kts | 266° |
| 2026-05-05 01:17 | 38.78468 | -75.61183 | 10040 ft | 305 kts | 266° |
| 2026-05-05 01:17 | 38.78291 | -75.63893 | 10038 ft | 305 kts | 266° |
| 2026-05-05 01:17 | 38.78114 | -75.66599 | 10040 ft | 305 kts | 266° |
| 2026-05-05 01:18 | 38.77960 | -75.69309 | 10039 ft | 305 kts | 271° |
| 2026-05-05 01:18 | 38.78270 | -75.71974 | 10050 ft | 303 kts | 283° |
| 2026-05-05 01:18 | 38.78759 | -75.74602 | 10034 ft | 303 kts | 284° |
| 2026-05-05 01:18 | 38.79257 | -75.77234 | 10034 ft | 304 kts | 284° |
| 2026-05-05 01:19 | 38.79758 | -75.79860 | 10035 ft | 301 kts | 283° |
| 2026-05-05 01:19 | 38.80253 | -75.82455 | 10027 ft | 300 kts | 283° |
| 2026-05-05 01:19 | 38.80748 | -75.85057 | 10029 ft | 300 kts | 283° |
| 2026-05-05 01:19 | 38.81231 | -75.87615 | 10028 ft | 300 kts | 283° |
| 2026-05-05 01:20 | 38.81721 | -75.90216 | 10031 ft | 300 kts | 283° |
| 2026-05-05 01:20 | 38.82207 | -75.92811 | 10028 ft | 300 kts | 283° |
| 2026-05-05 01:20 | 38.82693 | -75.95416 | 10036 ft | 300 kts | 283° |
| 2026-05-05 01:20 | 38.83178 | -75.98012 | 10036 ft | 300 kts | 283° |
| 2026-05-05 01:21 | 38.83664 | -76.00613 | 9980 ft | 298 kts | 283° |
| 2026-05-05 01:21 | 38.84136 | -76.03134 | 9904 ft | 284 kts | 283° |
| 2026-05-05 01:21 | 38.84584 | -76.05539 | 9830 ft | 271 kts | 283° |
| 2026-05-05 01:21 | 38.85011 | -76.07820 | 9696 ft | 265 kts | 283° |
| 2026-05-05 01:22 | 38.85438 | -76.10108 | 9483 ft | 263 kts | 283° |
| 2026-05-05 01:22 | 38.85861 | -76.12387 | 9276 ft | 262 kts | 283° |
| 2026-05-05 01:22 | 38.86282 | -76.14661 | 9064 ft | 261 kts | 282° |
| 2026-05-05 01:22 | 38.86699 | -76.16912 | 8860 ft | 259 kts | 282° |
| 2026-05-05 01:23 | 38.87115 | -76.19158 | 8655 ft | 258 kts | 282° |
| 2026-05-05 01:23 | 38.87531 | -76.21396 | 8447 ft | 258 kts | 282° |
| 2026-05-05 01:23 | 38.87948 | -76.23640 | 8242 ft | 259 kts | 281° |
| 2026-05-05 01:23 | 38.88359 | -76.25851 | 8042 ft | 258 kts | 281° |
| 2026-05-05 01:24 | 38.88774 | -76.28090 | 7846 ft | 258 kts | 281° |
| 2026-05-05 01:24 | 38.89188 | -76.30330 | 7645 ft | 258 kts | 281° |
| 2026-05-05 01:24 | 38.89601 | -76.32568 | 7437 ft | 257 kts | 280° |
| 2026-05-05 01:24 | 38.90012 | -76.34801 | 7245 ft | 257 kts | 280° |
| 2026-05-05 01:25 | 38.90421 | -76.37038 | 7049 ft | 257 kts | 280° |
| 2026-05-05 01:25 | 38.90830 | -76.39275 | 6854 ft | 257 kts | 279° |
| 2026-05-05 01:25 | 38.91239 | -76.41503 | 6660 ft | 257 kts | 279° |
| 2026-05-05 01:25 | 38.91651 | -76.43742 | 6467 ft | 257 kts | 279° |
| 2026-05-05 01:26 | 38.92054 | -76.45941 | 6272 ft | 257 kts | 279° |
| 2026-05-05 01:26 | 38.92459 | -76.48171 | 6066 ft | 256 kts | 279° |
| 2026-05-05 01:26 | 38.92864 | -76.50397 | 5868 ft | 256 kts | 279° |
| 2026-05-05 01:26 | 38.93269 | -76.52613 | 5676 ft | 254 kts | 279° |
| 2026-05-05 01:27 | 38.93674 | -76.54820 | 5473 ft | 253 kts | 279° |
| 2026-05-05 01:27 | 38.94076 | -76.57018 | 5275 ft | 253 kts | 278° |
| 2026-05-05 01:27 | 38.94474 | -76.59207 | 5078 ft | 253 kts | 278° |
| 2026-05-05 01:27 | 38.94868 | -76.61378 | 4883 ft | 253 kts | 278° |
| 2026-05-05 01:28 | 38.95265 | -76.63579 | 4697 ft | 253 kts | 278° |
| 2026-05-05 01:28 | 38.95658 | -76.65768 | 4615 ft | 253 kts | 278° |
| 2026-05-05 01:28 | 38.96054 | -76.67971 | 4493 ft | 253 kts | 278° |
| 2026-05-05 01:28 | 38.96449 | -76.70164 | 4365 ft | 253 kts | 278° |
| 2026-05-05 01:29 | 38.96846 | -76.72362 | 4233 ft | 252 kts | 278° |
| 2026-05-05 01:29 | 38.97235 | -76.74505 | 4123 ft | 251 kts | 278° |
| 2026-05-05 01:29 | 38.97629 | -76.76680 | 3987 ft | 250 kts | 278° |
| 2026-05-05 01:29 | 38.98020 | -76.78855 | 3865 ft | 250 kts | 278° |